Abrela — EAVW — position and weather

sailwx.info

Track history (hours):
 
Tides and Currents Weather Stations Pressure Air Temp Water Temp Dewpoint Dewpoint Depression Visibility Wind Speed Wind Dir Waves Ship Positions

Abrela

Last reported at 2016-Sep-19 00:33 UTC. Time now 2016-Sep-26 01:58 UTC.
Position N 43°45' W 007°28'.

Length 30 m; draft 3 m.

Type: Fishing. MMSI: 224204490.

Date/timePositionNaut miles runAvg speedWind from/ knotsBaromVisibWave heightAir tempDewpointWater temp
2016-Sep-19 00:33N 43°45' W 007°28'  
2016-Sep-16 00:31N 43°52' W 007°23'15 7.7
2016-Sep-15 22:33N 43°41' W 007°36'0 0.0
2016-Sep-15 21:33N 43°41' W 007°36'0 0.0
2016-Sep-15 20:33N 43°41' W 007°36'12 6.0
2016-Sep-15 18:33N 43°48' W 007°49'4 0.1
2016-Sep-13 22:19N 43°49' W 007°44'16 9.2
2016-Sep-13 20:33N 43°43' W 007°23'10 1.1
2016-Sep-13 11:11N 43°50' W 007°14'3 0.7
2016-Sep-13 06:30N 43°51' W 007°18'1 0.5
2016-Sep-13 04:22N 43°51' W 007°19'2 0.2
2016-Sep-12 19:09N 43°52' W 007°17'3 1.6
2016-Sep-12 17:31N 43°52' W 007°20'3 0.9
2016-Sep-12 14:33N 43°51' W 007°23'2 1.6
2016-Sep-12 13:33N 43°52' W 007°22'2 1.7
2016-Sep-12 12:32N 43°53' W 007°20'2 1.6
2016-Sep-12 11:33N 43°53' W 007°18'2 1.5
2016-Sep-12 10:13N 43°53' W 007°15'5 1.6
2016-Sep-12 07:20N 43°52' W 007°09'  
2016-Sep-09 19:04N 43°43' W 007°20'4 8.8
2016-Sep-09 18:33N 43°48' W 007°19'4 3.9
2016-Sep-09 17:33N 43°52' W 007°20'2 0.8
2016-Sep-09 15:18N 43°52' W 007°17'1 1.8
2016-Sep-09 14:30N 43°52' W 007°15'2 1.8
2016-Sep-09 13:33N 43°52' W 007°13'  
Track history (hours):
 
Tides and Currents Weather Stations Pressure Air Temp Water Temp Dewpoint Dewpoint Depression Visibility Wind Speed Wind Dir Waves Ship Positions

Abrela

Last reported at 2016-Sep-19 00:33 UTC. Time now 2016-Sep-26 01:58 UTC.
Position N 43°45' W 007°28'.

Length 30 m; draft 3 m.

Type: Fishing. MMSI: 224204490.

Date/timePositionNaut miles runAvg speedWind from/ knotsBaromVisibWave heightAir tempDewpointWater temp
2016-Sep-19 00:33N 43°45' W 007°28'  
2016-Sep-16 00:31N 43°52' W 007°23'15 7.7
2016-Sep-15 22:33N 43°41' W 007°36'0 0.0
2016-Sep-15 21:33N 43°41' W 007°36'0 0.0
2016-Sep-15 20:33N 43°41' W 007°36'12 6.0
2016-Sep-15 18:33N 43°48' W 007°49'4 0.1
2016-Sep-13 22:19N 43°49' W 007°44'16 9.2
2016-Sep-13 20:33N 43°43' W 007°23'10 1.1
2016-Sep-13 11:11N 43°50' W 007°14'3 0.7
2016-Sep-13 06:30N 43°51' W 007°18'1 0.5
2016-Sep-13 04:22N 43°51' W 007°19'2 0.2
2016-Sep-12 19:09N 43°52' W 007°17'3 1.6
2016-Sep-12 17:31N 43°52' W 007°20'3 0.9
2016-Sep-12 14:33N 43°51' W 007°23'2 1.6
2016-Sep-12 13:33N 43°52' W 007°22'2 1.7
2016-Sep-12 12:32N 43°53' W 007°20'2 1.6
2016-Sep-12 11:33N 43°53' W 007°18'2 1.5
2016-Sep-12 10:13N 43°53' W 007°15'5 1.6
2016-Sep-12 07:20N 43°52' W 007°09'  
2016-Sep-09 19:04N 43°43' W 007°20'4 8.8
2016-Sep-09 18:33N 43°48' W 007°19'4 3.9
2016-Sep-09 17:33N 43°52' W 007°20'2 0.8
2016-Sep-09 15:18N 43°52' W 007°17'1 1.8
2016-Sep-09 14:30N 43°52' W 007°15'2 1.8
2016-Sep-09 13:33N 43°52' W 007°13'  

Dump ship's entire track history